Time;durP1;ratioP1;P1;durP2;ratioP2;P2;SDS_P1;SDS_P2;PMS_P1;PMS_P2;Temp;Humidity;BMP_temperature;BMP_pressure;BME280_temperature;BME280_humidity;BME280_pressure;Samples;Min_cycle;Max_cycle;Signal;HPM_P1;HPM_P2
2023/11/13 00:01:31;;;;;;;4.93;4.63;;;6.30;85.90;;;;;;4986995;28;20234;-52
2023/11/13 00:03:57;;;;;;;3.97;3.67;;;6.30;85.30;;;;;;4993969;28;20221;-50
2023/11/13 00:06:23;;;;;;;4.53;4.17;;;6.30;85.50;;;;;;4986317;28;20232;-52
2023/11/13 00:08:50;;;;;;;4.33;4.03;;;6.30;85.60;;;;;;4990734;28;20404;-52
2023/11/13 00:11:16;;;;;;;4.50;4.20;;;6.30;85.40;;;;;;4991581;28;20228;-53
2023/11/13 00:13:44;;;;;;;4.10;3.80;;;6.30;85.90;;;;;;4993167;28;20211;-52
2023/11/13 00:16:10;;;;;;;4.97;4.57;;;6.30;85.60;;;;;;4993202;28;20236;-53
2023/11/13 00:18:37;;;;;;;5.17;4.80;;;6.20;85.00;;;;;;4986264;28;20209;-52
2023/11/13 00:21:04;;;;;;;4.20;3.90;;;6.10;86.40;;;;;;4986354;28;20227;-53
2023/11/13 00:23:31;;;;;;;5.13;4.73;;;6.20;86.70;;;;;;4988583;28;20651;-51
2023/11/13 00:25:58;;;;;;;5.40;5.00;;;6.20;86.10;;;;;;4993767;28;20722;-52
2023/11/13 00:28:24;;;;;;;5.13;4.70;;;6.20;86.10;;;;;;4992569;28;20215;-50
2023/11/13 00:30:51;;;;;;;6.30;5.77;;;6.20;86.90;;;;;;4993305;28;20291;-52
2023/11/13 00:33:17;;;;;;;6.03;5.27;;;6.20;86.20;;;;;;4993091;28;20269;-53
2023/11/13 00:35:44;;;;;;;5.70;5.30;;;6.20;86.70;;;;;;4992919;28;20509;-50
2023/11/13 00:38:11;;;;;;;6.70;6.10;;;6.20;87.60;;;;;;4988566;28;20215;-52
2023/11/13 00:40:37;;;;;;;6.10;5.60;;;6.20;87.10;;;;;;4974764;28;21098;-50
2023/11/13 00:43:04;;;;;;;6.47;5.90;;;6.20;87.20;;;;;;4988912;28;20223;-56
2023/11/13 00:45:31;;;;;;;6.77;6.03;;;6.30;87.20;;;;;;4991005;28;20290;-55
2023/11/13 00:47:58;;;;;;;6.77;6.17;;;6.30;86.20;;;;;;4989355;28;20226;-55
2023/11/13 00:50:24;;;;;;;6.57;6.07;;;6.30;85.70;;;;;;4992924;28;20726;-52
2023/11/13 00:52:51;;;;;;;6.57;5.97;;;6.30;85.20;;;;;;4993189;28;20291;-51
2023/11/13 00:55:17;;;;;;;6.53;5.97;;;6.30;85.60;;;;;;4991307;28;20240;-51
2023/11/13 00:57:44;;;;;;;6.97;6.37;;;6.20;86.70;;;;;;4990911;28;20286;-53
2023/11/13 01:00:11;;;;;;;7.77;7.17;;;6.20;86.70;;;;;;4992797;28;20304;-51
2023/11/13 01:02:39;;;;;;;6.80;6.20;;;6.20;86.70;;;;;;4981089;28;20311;-55
2023/11/13 01:05:05;;;;;;;6.50;5.97;;;6.30;86.80;;;;;;4989822;28;20320;-52
2023/11/13 01:07:32;;;;;;;7.63;6.93;;;6.30;86.70;;;;;;4992529;28;20638;-52
2023/11/13 01:09:58;;;;;;;7.13;6.53;;;6.30;85.90;;;;;;4987089;28;20246;-52
2023/11/13 01:12:25;;;;;;;7.03;6.43;;;6.30;85.70;;;;;;4992332;28;20207;-52
2023/11/13 01:14:51;;;;;;;7.47;6.80;;;6.30;85.60;;;;;;4992628;28;20236;-51
2023/11/13 01:17:18;;;;;;;6.87;6.27;;;6.30;85.40;;;;;;4990500;28;20211;-51
2023/11/13 01:19:44;;;;;;;6.80;6.13;;;6.30;85.90;;;;;;4981662;28;20204;-54
2023/11/13 01:22:11;;;;;;;6.60;6.00;;;6.30;85.80;;;;;;4997677;28;20211;-55
2023/11/13 01:24:37;;;;;;;7.30;6.63;;;6.30;86.10;;;;;;5000581;28;20290;-51
2023/11/13 01:27:04;;;;;;;6.87;6.17;;;6.40;86.20;;;;;;4993161;28;20243;-55
2023/11/13 01:29:30;;;;;;;7.60;6.80;;;6.40;86.70;;;;;;4993607;28;20303;-52
2023/11/13 01:31:57;;;;;;;6.67;6.17;;;6.50;86.80;;;;;;4990922;28;20718;-53
2023/11/13 01:34:24;;;;;;;7.10;6.50;;;6.50;86.50;;;;;;4992524;28;20225;-54
2023/11/13 01:36:51;;;;;;;7.17;6.57;;;6.50;87.00;;;;;;4987379;28;20358;-53
2023/11/13 01:39:17;;;;;;;7.40;6.80;;;6.50;87.30;;;;;;4991409;28;20216;-51
2023/11/13 01:41:43;;;;;;;6.80;6.20;;;6.60;87.10;;;;;;4990235;28;20206;-53
2023/11/13 01:44:10;;;;;;;7.30;6.60;;;6.60;86.40;;;;;;4994541;28;20207;-56
2023/11/13 01:46:37;;;;;;;8.20;7.50;;;6.50;85.50;;;;;;4994059;28;20744;-53
2023/11/13 01:49:03;;;;;;;8.20;7.50;;;6.50;86.40;;;;;;4992266;28;20599;-55
2023/11/13 01:51:30;;;;;;;8.67;7.87;;;6.60;86.30;;;;;;4984706;28;20214;-55
2023/11/13 01:53:56;;;;;;;8.50;7.70;;;6.60;86.70;;;;;;4987183;28;20203;-52
2023/11/13 01:56:23;;;;;;;8.07;7.33;;;6.50;87.10;;;;;;4983777;28;20232;-54
2023/11/13 01:58:49;;;;;;;8.07;7.37;;;6.60;87.70;;;;;;4991388;28;20654;-55
2023/11/13 02:01:16;;;;;;;8.77;7.93;;;6.60;87.70;;;;;;4985928;28;20234;-55
2023/11/13 02:03:42;;;;;;;8.67;7.87;;;6.60;87.50;;;;;;4992791;28;20298;-54
2023/11/13 02:06:09;;;;;;;8.83;7.93;;;6.60;88.30;;;;;;4983918;28;20719;-53
2023/11/13 02:08:35;;;;;;;9.13;8.23;;;6.60;88.30;;;;;;4990173;28;20589;-53
2023/11/13 02:11:03;;;;;;;9.37;8.47;;;6.70;87.60;;;;;;4987466;28;20323;-52
2023/11/13 02:13:30;;;;;;;9.57;8.67;;;6.70;87.00;;;;;;4978521;28;20215;-56
2023/11/13 02:15:57;;;;;;;9.07;8.27;;;6.60;87.40;;;;;;4986454;28;20306;-56
2023/11/13 02:18:23;;;;;;;9.00;8.10;;;6.60;88.80;;;;;;4989807;28;20664;-55
2023/11/13 02:20:50;;;;;;;8.40;7.53;;;6.70;88.60;;;;;;4991384;28;20208;-55
2023/11/13 02:23:16;;;;;;;8.27;7.47;;;6.70;88.60;;;;;;4982633;28;20300;-56
2023/11/13 02:25:43;;;;;;;8.60;7.70;;;6.70;88.50;;;;;;4990071;28;20588;-55
2023/11/13 02:28:09;;;;;;;9.07;8.17;;;6.80;88.40;;;;;;4988666;28;20295;-54
2023/11/13 02:30:37;;;;;;;8.70;7.80;;;6.80;89.50;;;;;;4991556;28;20651;-54
2023/11/13 02:33:03;;;;;;;8.77;7.87;;;6.80;89.20;;;;;;4990091;28;20295;-55
2023/11/13 02:35:30;;;;;;;10.23;9.00;;;6.80;88.50;;;;;;4990772;28;20235;-55
2023/11/13 02:37:56;;;;;;;9.17;8.13;;;6.90;88.20;;;;;;4994351;28;20205;-52
2023/11/13 02:40:22;;;;;;;8.40;7.60;;;6.90;88.50;;;;;;4995511;28;20212;-55
2023/11/13 02:42:50;;;;;;;9.60;8.40;;;6.90;88.60;;;;;;4990476;28;20291;-54
2023/11/13 02:45:16;;;;;;;9.23;8.33;;;7.00;88.20;;;;;;4986532;28;20228;-51
2023/11/13 02:47:43;;;;;;;9.93;8.63;;;7.00;89.10;;;;;;4994555;28;20300;-55
2023/11/13 02:50:11;;;;;;;9.23;8.30;;;6.90;89.60;;;;;;4995378;28;20271;-58
2023/11/13 02:52:38;;;;;;;9.47;8.50;;;6.90;90.10;;;;;;4990125;28;20213;-52
2023/11/13 02:55:05;;;;;;;9.63;8.63;;;6.90;90.10;;;;;;4986251;28;20251;-54
2023/11/13 02:57:32;;;;;;;10.50;9.40;;;6.90;90.50;;;;;;4988958;28;20210;-56
2023/11/13 02:59:58;;;;;;;10.03;9.03;;;7.00;90.70;;;;;;4982241;28;20217;-54
2023/11/13 03:02:25;;;;;;;11.97;9.70;;;7.00;90.90;;;;;;4989839;28;20295;-53
2023/11/13 03:04:51;;;;;;;10.63;9.00;;;7.10;90.80;;;;;;4995200;28;20297;-55
2023/11/13 03:07:17;;;;;;;9.63;8.73;;;7.00;90.90;;;;;;4995238;28;20222;-53
2023/11/13 03:09:44;;;;;;;10.13;9.13;;;7.10;91.20;;;;;;4994843;28;20329;-52
2023/11/13 03:12:10;;;;;;;10.33;9.33;;;7.10;91.50;;;;;;4996655;28;20212;-55
2023/11/13 03:14:37;;;;;;;9.60;8.17;;;7.10;91.80;;;;;;4996289;28;20643;-55
2023/11/13 03:17:03;;;;;;;9.13;7.83;;;7.10;91.90;;;;;;4991243;28;20380;-53
2023/11/13 03:19:30;;;;;;;9.27;8.10;;;7.10;92.10;;;;;;4993475;28;20298;-56
2023/11/13 03:21:56;;;;;;;10.77;8.00;;;7.20;92.40;;;;;;4994881;28;20296;-55
2023/11/13 03:24:23;;;;;;;9.83;8.00;;;7.20;92.60;;;;;;4995992;28;20308;-54
2023/11/13 03:26:49;;;;;;;12.53;8.63;;;7.30;92.60;;;;;;4994938;28;20786;-55
2023/11/13 03:29:16;;;;;;;8.13;7.33;;;7.30;92.70;;;;;;4990782;28;20208;-54
2023/11/13 03:31:42;;;;;;;9.17;7.37;;;7.40;92.80;;;;;;4994671;28;20304;-56
2023/11/13 03:34:09;;;;;;;8.57;7.60;;;7.40;92.80;;;;;;4985820;28;20300;-51
2023/11/13 03:36:34;;;;;;;8.00;7.23;;;7.40;92.60;;;;;;4994409;28;20231;-52
2023/11/13 03:39:01;;;;;;;7.17;6.47;;;7.40;92.80;;;;;;4993449;28;20284;-55
2023/11/13 03:41:27;;;;;;;9.87;7.17;;;7.50;93.10;;;;;;4994885;28;20249;-52
2023/11/13 03:43:54;;;;;;;11.07;7.53;;;7.50;93.20;;;;;;4991813;28;20212;-55
2023/11/13 03:46:21;;;;;;;8.77;7.10;;;7.50;93.30;;;;;;4993421;28;20650;-53
2023/11/13 03:48:47;;;;;;;7.40;6.70;;;7.50;93.30;;;;;;4992683;28;20288;-55
2023/11/13 03:51:13;;;;;;;7.50;6.70;;;7.50;93.30;;;;;;4994694;28;20241;-56
2023/11/13 03:53:40;;;;;;;7.80;6.57;;;7.50;93.50;;;;;;4987365;28;20297;-54
2023/11/13 03:56:06;;;;;;;7.97;6.97;;;7.60;93.60;;;;;;4988370;28;20682;-51
2023/11/13 03:58:33;;;;;;;6.47;5.77;;;7.60;93.70;;;;;;4993839;28;20646;-55
2023/11/13 04:00:59;;;;;;;6.40;5.80;;;7.60;93.80;;;;;;4994363;28;20283;-55
2023/11/13 04:03:26;;;;;;;9.57;6.73;;;7.60;93.70;;;;;;4994119;28;20288;-53
2023/11/13 04:05:54;;;;;;;6.87;6.20;;;7.60;94.00;;;;;;4993298;28;20311;-54
2023/11/13 04:08:20;;;;;;;6.70;6.03;;;7.70;93.90;;;;;;4993991;28;20276;-54
2023/11/13 04:10:48;;;;;;;8.80;6.10;;;7.60;93.90;;;;;;4991645;28;20264;-54
2023/11/13 04:13:14;;;;;;;6.07;5.47;;;7.60;94.10;;;;;;4987749;28;20223;-54
2023/11/13 04:15:41;;;;;;;6.83;5.83;;;7.70;94.20;;;;;;4986315;28;20234;-55
2023/11/13 04:18:07;;;;;;;5.70;5.23;;;7.70;94.20;;;;;;4993317;28;20236;-52
2023/11/13 04:20:34;;;;;;;6.07;5.40;;;7.80;94.30;;;;;;4993739;28;20214;-56
2023/11/13 04:23:00;;;;;;;5.97;5.13;;;7.80;94.10;;;;;;4994134;28;20284;-55
2023/11/13 04:25:27;;;;;;;5.63;5.03;;;7.80;94.00;;;;;;4989038;28;20308;-55
2023/11/13 04:27:53;;;;;;;4.90;4.50;;;7.80;94.00;;;;;;4989613;28;20213;-53
2023/11/13 04:30:19;;;;;;;5.20;4.70;;;7.80;93.70;;;;;;4988270;28;20386;-55
2023/11/13 04:32:46;;;;;;;5.20;4.70;;;7.90;93.70;;;;;;4991262;28;20219;-54
2023/11/13 04:35:13;;;;;;;4.97;4.57;;;7.90;93.50;;;;;;4989656;28;20233;-56
2023/11/13 04:37:39;;;;;;;5.57;5.03;;;7.90;93.20;;;;;;4993805;28;20209;-54
2023/11/13 04:40:07;;;;;;;6.60;5.40;;;7.90;93.40;;;;;;4992865;28;20641;-55
2023/11/13 04:42:33;;;;;;;5.37;4.90;;;7.90;93.50;;;;;;4992691;28;20214;-55
2023/11/13 04:45:00;;;;;;;5.63;4.80;;;7.90;93.70;;;;;;4993340;28;20305;-52
2023/11/13 04:47:26;;;;;;;8.63;5.50;;;7.90;93.60;;;;;;4992331;28;20261;-51
2023/11/13 04:49:53;;;;;;;4.93;4.53;;;8.00;94.10;;;;;;4992154;28;20211;-55
2023/11/13 04:52:19;;;;;;;6.20;4.40;;;7.90;94.00;;;;;;4986492;28;20293;-51
2023/11/13 04:54:46;;;;;;;4.43;4.03;;;8.00;94.30;;;;;;4988603;28;20270;-53
2023/11/13 04:57:12;;;;;;;5.40;4.30;;;8.00;94.30;;;;;;4992622;28;20634;-55
2023/11/13 04:59:39;;;;;;;4.37;3.93;;;8.10;94.20;;;;;;4992167;28;20214;-56
2023/11/13 05:02:07;;;;;;;4.20;3.80;;;8.10;94.20;;;;;;4993288;28;20226;-53
2023/11/13 05:04:33;;;;;;;4.97;4.57;;;8.20;94.20;;;;;;4992674;28;20233;-55
2023/11/13 05:07:00;;;;;;;6.37;4.00;;;8.20;94.00;;;;;;4993062;28;20208;-54
2023/11/13 05:09:28;;;;;;;3.90;3.20;;;8.20;94.20;;;;;;4985655;28;20217;-54
2023/11/13 05:11:54;;;;;;;3.53;3.27;;;8.20;94.10;;;;;;4992861;28;20210;-55
2023/11/13 05:14:21;;;;;;;3.80;2.90;;;8.30;94.00;;;;;;4992997;28;20651;-55
2023/11/13 05:16:47;;;;;;;8.10;3.83;;;8.40;94.10;;;;;;4991876;28;20667;-52
2023/11/13 05:19:14;;;;;;;7.37;3.10;;;8.50;94.20;;;;;;4991636;28;20210;-55
2023/11/13 05:21:41;;;;;;;5.90;3.20;;;8.60;94.00;;;;;;4992647;28;20201;-55
2023/11/13 05:24:07;;;;;;;5.03;3.33;;;8.70;93.60;;;;;;4992972;28;20297;-54
2023/11/13 05:26:35;;;;;;;6.17;3.07;;;8.80;93.80;;;;;;4986237;28;20230;-54
2023/11/13 05:29:01;;;;;;;2.97;2.50;;;8.80;93.70;;;;;;4992612;28;20213;-54
2023/11/13 05:31:28;;;;;;;5.63;2.60;;;8.90;93.40;;;;;;4992251;28;20680;-56
2023/11/13 05:33:54;;;;;;;6.67;2.80;;;9.00;93.20;;;;;;4990624;28;20288;-56
2023/11/13 05:36:21;;;;;;;4.23;2.33;;;9.10;92.40;;;;;;4987934;28;20309;-55
2023/11/13 05:38:47;;;;;;;8.17;2.97;;;9.10;92.00;;;;;;4987073;28;20206;-55
2023/11/13 05:41:14;;;;;;;6.23;2.90;;;9.20;91.50;;;;;;4992447;28;20298;-54
2023/11/13 05:43:40;;;;;;;5.17;3.20;;;9.30;91.60;;;;;;4985806;28;20213;-55
2023/11/13 05:46:07;;;;;;;7.17;2.80;;;9.40;91.30;;;;;;4982516;28;20653;-52
2023/11/13 05:48:33;;;;;;;5.00;2.40;;;9.40;90.80;;;;;;4986757;28;20239;-53
2023/11/13 05:51:00;;;;;;;6.33;2.43;;;9.60;88.20;;;;;;4992218;28;20302;-56
2023/11/13 05:53:26;;;;;;;5.20;2.90;;;9.60;87.60;;;;;;4984807;28;20290;-54
2023/11/13 05:55:53;;;;;;;5.20;2.73;;;9.60;87.10;;;;;;4991276;28;20309;-54
2023/11/13 05:58:19;;;;;;;5.20;2.67;;;9.60;86.80;;;;;;4985665;28;20227;-54
2023/11/13 06:00:46;;;;;;;6.40;2.77;;;9.60;86.10;;;;;;4984823;28;20279;-53
2023/11/13 06:03:12;;;;;;;5.40;3.20;;;9.70;85.50;;;;;;4988643;28;20238;-51
2023/11/13 06:05:41;;;;;;;7.97;2.90;;;9.70;85.60;;;;;;4979488;28;20308;-56
2023/11/13 06:08:07;;;;;;;5.87;2.50;;;9.70;85.50;;;;;;4987307;28;22209;-55
2023/11/13 06:10:34;;;;;;;7.83;3.43;;;9.70;83.50;;;;;;4987435;28;20293;-50
2023/11/13 06:13:02;;;;;;;7.67;2.83;;;9.80;83.30;;;;;;4990002;28;20204;-54
2023/11/13 06:15:28;;;;;;;3.17;2.20;;;9.70;83.60;;;;;;4994346;28;20313;-52
2023/11/13 06:17:55;;;;;;;4.00;2.40;;;9.90;81.50;;;;;;4993461;28;20234;-55
2023/11/13 06:20:21;;;;;;;5.10;2.70;;;9.90;80.50;;;;;;4987006;28;20302;-53
2023/11/13 06:22:48;;;;;;;5.83;2.60;;;9.90;80.30;;;;;;4986633;28;20211;-56
2023/11/13 06:25:15;;;;;;;4.87;2.80;;;9.90;80.50;;;;;;4983771;28;21128;-51
2023/11/13 06:27:41;;;;;;;4.10;2.30;;;9.90;80.30;;;;;;4986511;28;20290;-54
2023/11/13 06:30:09;;;;;;;6.33;2.40;;;9.90;80.30;;;;;;4984269;28;20686;-54
2023/11/13 06:32:36;;;;;;;4.90;2.50;;;10.00;77.00;;;;;;4993245;28;20218;-54
2023/11/13 06:35:02;;;;;;;5.30;2.20;;;10.00;77.00;;;;;;4986963;28;20330;-52
2023/11/13 06:37:29;;;;;;;6.10;2.37;;;10.10;76.80;;;;;;4981001;28;20230;-55
2023/11/13 06:39:56;;;;;;;4.33;2.30;;;10.10;75.20;;;;;;4991704;28;20207;-54
2023/11/13 06:42:22;;;;;;;3.17;2.43;;;10.20;75.10;;;;;;4994559;28;20837;-52
2023/11/13 06:44:49;;;;;;;4.10;2.30;;;10.20;75.00;;;;;;4994052;28;20266;-55
2023/11/13 06:47:16;;;;;;;5.10;2.50;;;10.20;75.20;;;;;;4988982;28;20217;-53
2023/11/13 06:49:43;;;;;;;3.70;1.87;;;10.10;75.00;;;;;;4984113;28;20247;-54
2023/11/13 06:52:09;;;;;;;3.73;2.17;;;10.10;76.10;;;;;;4991414;28;20316;-54
2023/11/13 06:54:36;;;;;;;6.33;2.47;;;10.10;75.50;;;;;;4986514;28;20665;-53
2023/11/13 06:57:02;;;;;;;4.70;2.50;;;10.20;75.30;;;;;;4982559;28;20317;-52
2023/11/13 06:59:29;;;;;;;3.47;2.00;;;10.20;75.10;;;;;;4989065;28;20224;-53
2023/11/13 07:01:55;;;;;;;2.97;1.67;;;10.30;74.90;;;;;;4986166;28;20291;-54
2023/11/13 07:04:24;;;;;;;2.07;1.90;;;10.30;74.20;;;;;;4982265;28;20650;-53
2023/11/13 07:06:50;;;;;;;2.27;1.70;;;10.40;73.70;;;;;;4992243;28;20204;-53
2023/11/13 07:09:17;;;;;;;2.30;2.10;;;10.30;73.00;;;;;;4993068;28;20304;-54
2023/11/13 07:11:44;;;;;;;2.73;2.00;;;10.40;73.60;;;;;;4993275;28;20241;-59
2023/11/13 07:14:10;;;;;;;3.17;2.20;;;10.40;73.00;;;;;;4973449;28;20377;-56
2023/11/13 07:16:37;;;;;;;1.93;1.83;;;10.30;73.10;;;;;;4992882;28;20305;-54
2023/11/13 07:19:03;;;;;;;3.27;1.87;;;10.40;73.00;;;;;;4990980;28;20212;-55
2023/11/13 07:21:30;;;;;;;3.53;2.10;;;10.40;72.80;;;;;;4988260;28;20218;-54
2023/11/13 07:23:56;;;;;;;2.03;1.90;;;10.40;72.50;;;;;;4984933;28;20292;-54
2023/11/13 07:26:23;;;;;;;4.40;2.10;;;10.40;72.80;;;;;;4980930;28;20307;-55
2023/11/13 07:28:49;;;;;;;4.30;2.37;;;10.40;72.30;;;;;;4987566;28;20211;-55
2023/11/13 07:31:16;;;;;;;2.00;1.77;;;10.40;72.00;;;;;;4985778;28;20239;-54
2023/11/13 07:33:43;;;;;;;1.87;1.73;;;10.50;71.80;;;;;;4984476;28;20214;-52
2023/11/13 07:36:10;;;;;;;3.60;1.90;;;10.50;72.00;;;;;;4976904;28;20327;-54
2023/11/13 07:38:37;;;;;;;2.63;2.00;;;10.40;72.00;;;;;;4984668;28;20598;-57
2023/11/13 07:41:03;;;;;;;2.63;2.07;;;10.40;72.40;;;;;;4984389;28;20584;-56
2023/11/13 07:43:31;;;;;;;4.20;2.13;;;10.40;71.90;;;;;;4980891;28;20302;-55
2023/11/13 07:45:57;;;;;;;3.43;2.37;;;10.40;72.00;;;;;;4991368;28;20234;-54
2023/11/13 07:48:26;;;;;;;2.70;2.00;;;10.40;72.30;;;;;;4995697;28;20250;-55
2023/11/13 07:50:52;;;;;;;3.23;2.00;;;10.40;72.00;;;;;;4994868;28;20215;-55
2023/11/13 07:53:19;;;;;;;2.00;1.73;;;10.50;72.10;;;;;;4987747;28;20211;-53
2023/11/13 07:55:46;;;;;;;3.13;2.00;;;10.40;72.50;;;;;;4993407;28;20239;-56
2023/11/13 07:58:13;;;;;;;1.70;1.60;;;10.40;72.00;;;;;;4977188;28;20311;-55
2023/11/13 08:00:40;;;;;;;2.17;2.07;;;10.40;72.50;;;;;;4973994;28;20204;-55
2023/11/13 08:03:06;;;;;;;2.50;1.90;;;10.40;71.80;;;;;;4978825;28;20214;-57
2023/11/13 08:05:34;;;;;;;2.43;1.97;;;10.40;71.20;;;;;;4982869;28;20223;-55
2023/11/13 08:08:01;;;;;;;2.77;1.70;;;10.40;72.00;;;;;;4986162;28;20847;-53
2023/11/13 08:10:29;;;;;;;1.80;1.70;;;10.40;71.60;;;;;;4973579;28;20211;-58
2023/11/13 08:12:55;;;;;;;1.70;1.60;;;10.40;71.10;;;;;;4979855;28;20208;-55
2023/11/13 08:15:25;;;;;;;1.97;1.70;;;10.40;69.70;;;;;;4988325;28;20318;-56
2023/11/13 08:17:52;;;;;;;2.50;1.60;;;10.50;69.10;;;;;;4983860;28;20236;-53
2023/11/13 08:20:25;;;;;;;1.87;1.70;;;10.50;68.60;;;;;;4981098;28;20215;-55
2023/11/13 08:22:52;;;;;;;2.73;1.73;;;10.50;69.20;;;;;;4987574;28;20535;-57
2023/11/13 08:25:19;;;;;;;4.93;2.00;;;10.50;69.80;;;;;;4970465;28;20243;-56
2023/11/13 08:27:45;;;;;;;1.40;1.30;;;10.50;69.20;;;;;;4977631;28;20209;-57
2023/11/13 08:30:13;;;;;;;2.03;1.50;;;10.50;69.50;;;;;;4989847;28;20276;-56
2023/11/13 08:32:40;;;;;;;1.43;1.30;;;10.50;70.00;;;;;;4988905;28;20219;-57
2023/11/13 08:35:11;;;;;;;4.30;1.67;;;10.50;71.10;;;;;;4981367;28;20236;-54
2023/11/13 08:37:37;;;;;;;1.73;1.43;;;10.50;72.30;;;;;;4988387;28;20306;-56
2023/11/13 08:40:04;;;;;;;1.50;1.40;;;10.40;73.40;;;;;;4987724;28;20232;-59
2023/11/13 08:42:31;;;;;;;1.50;1.40;;;10.40;73.80;;;;;;4978014;28;20371;-53
2023/11/13 08:45:00;;;;;;;2.03;1.70;;;10.40;74.80;;;;;;4979319;28;20223;-55
2023/11/13 08:47:27;;;;;;;3.53;1.60;;;10.40;76.20;;;;;;4987058;28;20211;-56
2023/11/13 08:49:53;;;;;;;1.97;1.70;;;10.30;77.20;;;;;;4987708;28;20219;-56
2023/11/13 08:52:20;;;;;;;1.90;1.50;;;10.30;77.90;;;;;;4984953;28;20279;-56
2023/11/13 08:54:46;;;;;;;1.20;1.20;;;10.30;78.80;;;;;;4977937;28;20607;-56
2023/11/13 08:57:14;;;;;;;1.90;1.80;;;10.30;78.70;;;;;;4951949;28;20281;-55
2023/11/13 08:59:41;;;;;;;1.70;1.60;;;10.20;79.80;;;;;;4984976;28;20292;-54
2023/11/13 09:02:07;;;;;;;1.63;1.53;;;10.20;79.60;;;;;;4986785;28;20307;-54
2023/11/13 09:04:34;;;;;;;1.53;1.43;;;10.10;80.70;;;;;;4984745;28;20247;-51
2023/11/13 09:07:01;;;;;;;1.60;1.50;;;10.10;81.90;;;;;;4990088;28;20208;-57
2023/11/13 09:09:28;;;;;;;2.47;1.50;;;10.10;82.60;;;;;;4991029;28;20299;-53
2023/11/13 09:11:54;;;;;;;1.60;1.50;;;10.10;82.60;;;;;;4980959;28;20214;-53
2023/11/13 09:14:22;;;;;;;1.70;1.60;;;10.10;83.30;;;;;;4985097;28;20214;-55
2023/11/13 09:16:48;;;;;;;2.93;2.00;;;10.10;84.10;;;;;;4988314;28;20220;-57
2023/11/13 09:19:15;;;;;;;2.10;2.00;;;10.10;84.40;;;;;;4979103;28;22129;-56
2023/11/13 09:21:42;;;;;;;2.30;1.93;;;10.10;84.90;;;;;;4985006;28;20299;-56
2023/11/13 09:24:09;;;;;;;2.00;1.60;;;10.10;85.90;;;;;;4989766;28;20208;-55
2023/11/13 09:26:36;;;;;;;2.07;1.83;;;10.10;86.80;;;;;;4989366;28;20650;-56
2023/11/13 09:29:03;;;;;;;2.43;2.30;;;10.10;87.70;;;;;;4985677;28;20259;-57
2023/11/13 09:31:29;;;;;;;2.97;1.93;;;10.10;87.50;;;;;;4980214;28;20215;-54
2023/11/13 09:33:56;;;;;;;2.07;1.70;;;10.10;89.00;;;;;;4984649;28;20212;-56
2023/11/13 09:36:22;;;;;;;3.37;1.90;;;10.10;89.60;;;;;;4983828;28;20750;-51
2023/11/13 09:38:53;;;;;;;3.13;1.90;;;10.10;89.80;;;;;;4981563;28;20488;-58
2023/11/13 09:41:20;;;;;;;1.80;1.60;;;10.10;90.40;;;;;;4983741;28;20224;-57
2023/11/13 09:43:46;;;;;;;2.10;1.83;;;10.10;90.40;;;;;;4985867;28;21654;-56
2023/11/13 09:46:14;;;;;;;2.57;2.00;;;10.10;90.40;;;;;;4988012;28;20311;-58
2023/11/13 09:48:43;;;;;;;2.20;2.00;;;10.10;90.40;;;;;;4987399;28;20227;-52
2023/11/13 09:51:10;;;;;;;2.53;1.97;;;10.10;90.50;;;;;;4971156;28;20209;-56
2023/11/13 09:53:36;;;;;;;3.10;2.33;;;10.10;90.60;;;;;;4975854;28;20302;-58
2023/11/13 09:56:03;;;;;;;3.90;2.10;;;10.00;91.10;;;;;;4988066;28;20314;-56
2023/11/13 09:58:30;;;;;;;2.80;2.50;;;10.00;91.00;;;;;;4985952;28;20231;-56
2023/11/13 10:00:56;;;;;;;3.17;2.33;;;10.00;91.50;;;;;;4986026;28;20203;-55
2023/11/13 10:03:23;;;;;;;3.57;1.90;;;10.00;91.50;;;;;;4985473;28;20226;-57
2023/11/13 10:05:50;;;;;;;2.40;2.20;;;10.00;91.30;;;;;;4979594;28;20298;-55
2023/11/13 10:08:17;;;;;;;4.13;2.60;;;10.00;91.40;;;;;;4980757;28;20267;-56
2023/11/13 10:10:43;;;;;;;4.20;2.30;;;10.00;91.50;;;;;;4974439;28;20207;-54
2023/11/13 10:13:12;;;;;;;3.93;2.63;;;10.00;91.30;;;;;;4977811;28;20208;-56
2023/11/13 10:15:41;;;;;;;4.13;2.47;;;10.00;91.50;;;;;;4988626;28;20350;-56
2023/11/13 10:18:08;;;;;;;3.73;2.60;;;10.10;91.30;;;;;;4980546;28;20298;-53
2023/11/13 10:20:34;;;;;;;2.10;1.90;;;10.10;91.10;;;;;;4984900;28;20221;-53
2023/11/13 10:23:03;;;;;;;2.47;2.03;;;10.10;90.90;;;;;;4979455;28;20213;-55
2023/11/13 10:25:30;;;;;;;4.30;1.90;;;10.10;91.00;;;;;;4982828;28;20229;-55
2023/11/13 10:27:56;;;;;;;2.27;2.07;;;10.10;90.80;;;;;;4990562;28;20207;-56
2023/11/13 10:30:24;;;;;;;2.90;2.33;;;10.10;90.80;;;;;;4990904;28;20223;-55
2023/11/13 10:32:51;;;;;;;3.80;2.43;;;10.10;90.80;;;;;;4983848;28;20215;-55
2023/11/13 10:35:17;;;;;;;2.07;1.87;;;10.10;90.50;;;;;;4989304;28;20255;-54
2023/11/13 10:37:44;;;;;;;3.03;1.83;;;10.20;90.20;;;;;;4984373;28;20311;-56
2023/11/13 10:40:11;;;;;;;2.50;1.80;;;10.20;90.30;;;;;;4985580;28;20298;-58
2023/11/13 10:42:37;;;;;;;2.70;1.90;;;10.20;90.10;;;;;;4977205;28;20406;-57
2023/11/13 10:45:04;;;;;;;2.37;1.50;;;10.30;90.20;;;;;;4986573;28;20319;-57
2023/11/13 10:47:32;;;;;;;4.50;2.50;;;10.40;90.00;;;;;;4982830;28;20211;-57
2023/11/13 10:49:58;;;;;;;2.50;2.30;;;10.40;90.00;;;;;;4989435;28;20216;-54
2023/11/13 10:52:27;;;;;;;2.63;2.00;;;10.40;89.90;;;;;;4986122;28;20213;-57
2023/11/13 10:54:54;;;;;;;2.40;2.20;;;10.50;89.60;;;;;;4985190;28;20576;-56
2023/11/13 10:57:21;;;;;;;3.27;1.77;;;10.50;89.50;;;;;;4986829;28;20233;-55
2023/11/13 10:59:52;;;;;;;2.03;1.90;;;10.50;89.40;;;;;;4994397;28;20243;-56
2023/11/13 11:02:18;;;;;;;2.23;2.03;;;10.60;89.40;;;;;;4985946;28;20575;-56
2023/11/13 11:04:46;;;;;;;4.10;1.80;;;10.60;89.70;;;;;;4974030;28;20305;-55
2023/11/13 11:07:13;;;;;;;2.23;1.57;;;10.60;89.70;;;;;;4975035;28;20201;-56
2023/11/13 11:09:40;;;;;;;2.53;1.63;;;10.70;89.30;;;;;;4989465;28;20217;-54
2023/11/13 11:12:07;;;;;;;1.70;1.60;;;10.70;88.00;;;;;;4986316;28;20231;-56
2023/11/13 11:14:34;;;;;;;2.27;2.10;;;10.80;87.70;;;;;;4981218;28;20255;-55
2023/11/13 11:17:00;;;;;;;2.07;1.70;;;10.80;87.50;;;;;;4979927;28;20295;-56
2023/11/13 11:19:29;;;;;;;1.90;1.53;;;10.80;88.40;;;;;;4994405;28;20244;-55
2023/11/13 11:21:59;;;;;;;2.43;1.50;;;10.90;87.80;;;;;;4992024;28;20209;-54
2023/11/13 11:24:26;;;;;;;2.17;1.43;;;10.90;87.10;;;;;;4987118;28;20211;-56
2023/11/13 11:26:53;;;;;;;2.13;2.03;;;11.00;87.80;;;;;;4988222;28;20214;-55
2023/11/13 11:29:20;;;;;;;1.87;1.77;;;11.00;87.60;;;;;;4993286;28;20210;-53
2023/11/13 11:31:47;;;;;;;2.23;2.03;;;11.00;86.80;;;;;;4981758;28;20260;-57
2023/11/13 11:34:14;;;;;;;1.93;1.83;;;11.10;85.90;;;;;;4987142;28;20206;-55
2023/11/13 11:36:41;;;;;;;3.00;2.10;;;11.10;85.80;;;;;;4989543;28;20250;-56
2023/11/13 11:39:09;;;;;;;2.30;1.83;;;11.10;86.70;;;;;;4991947;28;20231;-57
2023/11/13 11:41:35;;;;;;;2.43;1.90;;;11.20;85.90;;;;;;4980535;28;20906;-56
2023/11/13 11:44:04;;;;;;;4.50;1.87;;;11.30;86.00;;;;;;4976334;28;20206;-56
2023/11/13 11:46:30;;;;;;;3.17;2.00;;;11.30;84.40;;;;;;4982047;28;20400;-56
2023/11/13 11:48:57;;;;;;;4.57;2.30;;;11.40;83.90;;;;;;4987245;28;20241;-56
2023/11/13 11:51:24;;;;;;;2.60;1.90;;;11.40;83.70;;;;;;4986148;28;21388;-56
2023/11/13 11:53:50;;;;;;;3.93;1.90;;;11.40;84.20;;;;;;4989491;28;20292;-55
2023/11/13 11:56:17;;;;;;;2.43;2.07;;;11.40;83.90;;;;;;4987305;28;20317;-57
2023/11/13 11:58:44;;;;;;;2.93;2.17;;;11.40;84.50;;;;;;4983963;28;20226;-57
2023/11/13 12:01:09;;;;;;;3.30;2.67;;;11.40;85.00;;;;;;4988763;28;20218;-56
2023/11/13 12:03:36;;;;;;;4.03;2.23;;;11.40;84.20;;;;;;4977551;28;20206;-56
2023/11/13 12:06:03;;;;;;;2.07;1.63;;;11.50;84.90;;;;;;4988869;28;20238;-51
2023/11/13 12:08:30;;;;;;;2.83;2.20;;;11.50;85.00;;;;;;4985841;28;20431;-54
2023/11/13 12:10:57;;;;;;;5.80;2.07;;;11.50;84.80;;;;;;4991866;28;20268;-54
2023/11/13 12:13:25;;;;;;;3.37;2.10;;;11.50;84.60;;;;;;4983693;28;20290;-53
2023/11/13 12:15:52;;;;;;;2.93;2.70;;;11.60;85.50;;;;;;4987540;28;20270;-57
2023/11/13 12:18:18;;;;;;;2.67;2.03;;;11.70;84.70;;;;;;4989280;28;20227;-55
2023/11/13 12:20:45;;;;;;;4.17;2.87;;;11.60;85.30;;;;;;4981113;28;20294;-56
2023/11/13 12:23:12;;;;;;;4.03;2.40;;;11.60;86.00;;;;;;4988293;28;20690;-54
2023/11/13 12:25:38;;;;;;;3.57;2.17;;;11.60;86.30;;;;;;4987964;28;20654;-57
2023/11/13 12:28:07;;;;;;;3.80;2.13;;;11.60;86.40;;;;;;4987743;28;20645;-55
2023/11/13 12:30:34;;;;;;;3.63;2.30;;;11.60;85.10;;;;;;4990982;28;20218;-56
2023/11/13 12:33:00;;;;;;;7.17;2.50;;;11.70;84.50;;;;;;4978119;28;20308;-54
2023/11/13 12:35:31;;;;;;;3.30;2.37;;;11.70;85.00;;;;;;4992043;28;20266;-55
2023/11/13 12:37:58;;;;;;;2.90;2.27;;;11.70;84.00;;;;;;4983935;28;20226;-57
2023/11/13 12:40:25;;;;;;;2.63;2.30;;;11.80;84.20;;;;;;4992256;28;20651;-55
2023/11/13 12:42:51;;;;;;;5.23;2.23;;;11.80;84.80;;;;;;4991403;28;20236;-56
2023/11/13 12:45:18;;;;;;;3.20;2.90;;;11.80;82.90;;;;;;4985398;28;20244;-55
2023/11/13 12:47:44;;;;;;;3.03;2.13;;;11.90;83.90;;;;;;4993006;28;20203;-56
2023/11/13 12:50:11;;;;;;;4.00;2.30;;;11.90;82.30;;;;;;4986494;28;20219;-56